Time;durP1;ratioP1;P1;durP2;ratioP2;P2;SDS_P1;SDS_P2;PMS_P1;PMS_P2;Temp;Humidity;BMP_temperature;BMP_pressure;BME280_temperature;BME280_humidity;BME280_pressure;Samples;Min_cycle;Max_cycle;Signal;HPM_P1;HPM_P2
2021/04/06 00:00:02;;;;;;;3.33;1.30;;;17.50;44.30;;;;;;4919271;29;20726;-81
2021/04/06 00:02:30;;;;;;;2.40;1.20;;;17.50;44.30;;;;;;4919298;29;20259;-80
2021/04/06 00:05:00;;;;;;;2.00;1.13;;;17.50;44.40;;;;;;4914821;29;20179;-81
2021/04/06 00:07:27;;;;;;;2.70;1.00;;;17.50;44.40;;;;;;4913432;29;20207;-81
2021/04/06 00:10:00;;;;;;;3.73;1.40;;;17.50;44.40;;;;;;4918735;29;20203;-81
2021/04/06 00:12:28;;;;;;;3.33;1.27;;;17.50;44.40;;;;;;4919237;29;20210;-81
2021/04/06 00:14:58;;;;;;;2.10;1.10;;;17.50;44.40;;;;;;4918502;29;20581;-81
2021/04/06 00:17:30;;;;;;;3.70;1.13;;;17.50;44.40;;;;;;4919490;29;20195;-82
2021/04/06 00:20:00;;;;;;;2.20;1.00;;;17.50;44.40;;;;;;4919525;29;20207;-82
2021/04/06 00:22:28;;;;;;;2.90;1.20;;;17.50;44.40;;;;;;4918415;29;20191;-81
2021/04/06 00:24:55;;;;;;;2.57;1.10;;;17.40;44.40;;;;;;4919026;29;20211;-81
2021/04/06 00:27:29;;;;;;;3.97;1.40;;;17.50;44.40;;;;;;4919074;29;20215;-81
2021/04/06 00:30:02;;;;;;;4.13;1.40;;;17.50;44.40;;;;;;4917905;29;20235;-81
2021/04/06 00:32:36;;;;;;;3.93;1.20;;;17.40;44.30;;;;;;4916722;29;20194;-81
2021/04/06 00:35:05;;;;;;;2.53;1.03;;;17.40;44.20;;;;;;4918884;29;20199;-82
2021/04/06 00:37:35;;;;;;;4.87;1.10;;;17.40;44.20;;;;;;4918748;29;20222;-81
2021/04/06 00:40:15;;;;;;;4.97;1.43;;;17.40;44.10;;;;;;4918295;29;20207;-81
2021/04/06 00:42:42;;;;;;;2.77;1.10;;;17.40;44.10;;;;;;4919140;29;20199;-79
2021/04/06 00:45:09;;;;;;;2.67;1.00;;;17.40;44.20;;;;;;4916975;29;20199;-79
2021/04/06 00:47:35;;;;;;;4.20;0.90;;;17.40;44.20;;;;;;4918696;29;20207;-82
2021/04/06 00:50:06;;;;;;;3.57;1.27;;;17.40;44.20;;;;;;4918772;29;20207;-80
2021/04/06 00:52:44;;;;;;;2.17;0.97;;;17.40;44.20;;;;;;4918597;29;20250;-80
2021/04/06 00:55:16;;;;;;;2.33;0.87;;;17.30;44.10;;;;;;4918440;29;20202;-80
2021/04/06 00:57:44;;;;;;;4.27;1.27;;;17.30;44.00;;;;;;4917733;29;20213;-79
2021/04/06 01:00:40;;;;;;;2.73;0.93;;;17.30;44.10;;;;;;4916125;29;20592;-79
2021/04/06 01:03:12;;;;;;;3.73;1.10;;;17.30;44.70;;;;;;4909211;29;20207;-80
2021/04/06 01:06:14;;;;;;;2.30;1.10;;;17.30;44.10;;;;;;4902291;29;20199;-80
2021/04/06 01:08:41;;;;;;;3.20;1.10;;;17.30;44.10;;;;;;4858971;29;20208;-78
2021/04/06 01:11:08;;;;;;;3.43;1.23;;;17.30;44.10;;;;;;4905654;29;20222;-81
2021/04/06 01:13:35;;;;;;;3.17;1.10;;;17.30;44.10;;;;;;4918480;29;20714;-81
2021/04/06 01:16:03;;;;;;;2.87;1.00;;;17.30;44.20;;;;;;4915055;29;20215;-81
2021/04/06 01:18:30;;;;;;;1.83;0.83;;;17.30;44.20;;;;;;4911755;29;20207;-87
2021/04/06 01:20:57;;;;;;;4.13;1.20;;;17.30;44.30;;;;;;4902702;29;20267;-89
2021/04/06 01:23:25;;;;;;;5.07;0.90;;;17.40;45.80;;;;;;4917423;29;20210;-82
2021/04/06 01:25:56;;;;;;;1.67;1.00;;;17.50;45.70;;;;;;4917555;29;20183;-83
2021/04/06 01:28:44;;;;;;;2.47;1.00;;;17.70;45.60;;;;;;4916825;29;20207;-85
2021/04/06 01:31:12;;;;;;;3.60;1.20;;;17.70;45.40;;;;;;4914312;29;20213;-83
2021/04/06 01:33:46;;;;;;;3.50;0.87;;;17.80;45.50;;;;;;4918175;29;20310;-86
2021/04/06 01:36:13;;;;;;;2.27;0.90;;;17.80;45.20;;;;;;4915949;29;20219;-83
2021/04/06 01:38:41;;;;;;;2.80;0.93;;;17.90;45.20;;;;;;4917360;29;20214;-83
2021/04/06 01:41:17;;;;;;;2.37;0.83;;;17.90;45.00;;;;;;4915728;29;20203;-84
2021/04/06 01:43:47;;;;;;;2.20;0.87;;;17.90;45.00;;;;;;4917137;29;20187;-81
2021/04/06 01:46:59;;;;;;;2.37;1.00;;;18.00;44.90;;;;;;4921988;29;20203;-83
2021/04/06 01:49:01;;;;;;;2.50;1.10;;;18.00;44.80;;;;;;4914294;29;20213;-83
2021/04/06 01:51:28;;;;;;;1.90;0.80;;;18.00;44.70;;;;;;4915016;29;20668;-83
2021/04/06 01:54:06;;;;;;;2.83;0.97;;;17.90;44.80;;;;;;4910965;29;20211;-83
2021/04/06 01:57:00;;;;;;;3.27;1.00;;;18.00;44.70;;;;;;4924980;29;20210;-84
2021/04/06 01:59:33;;;;;;;2.00;1.00;;;18.00;44.70;;;;;;4936760;29;20219;-84
2021/04/06 02:02:01;;;;;;;2.30;0.90;;;18.10;44.60;;;;;;4936007;29;20179;-84
2021/04/06 02:04:29;;;;;;;4.07;1.00;;;18.10;44.70;;;;;;4921546;29;20198;-84
2021/04/06 02:06:59;;;;;;;4.07;1.20;;;18.10;44.70;;;;;;4917009;29;20186;-84
2021/04/06 02:09:26;;;;;;;2.10;0.80;;;18.10;44.70;;;;;;4925412;29;20187;-84
2021/04/06 02:11:53;;;;;;;3.13;1.07;;;18.10;44.60;;;;;;4916145;29;20423;-84
2021/04/06 02:14:22;;;;;;;1.63;0.53;;;18.10;44.40;;;;;;4916797;29;20223;-85
2021/04/06 02:17:06;;;;;;;3.00;1.03;;;18.20;44.40;;;;;;4917566;29;20207;-85
2021/04/06 02:19:35;;;;;;;4.37;0.80;;;18.20;44.50;;;;;;4913336;29;20660;-84
2021/04/06 02:22:10;;;;;;;1.40;0.80;;;18.30;44.50;;;;;;4915112;29;20191;-84
2021/04/06 02:24:39;;;;;;;1.70;0.83;;;18.30;44.40;;;;;;4915769;29;20719;-84
2021/04/06 02:27:18;;;;;;;4.70;1.20;;;18.30;44.40;;;;;;4916777;29;20191;-82
2021/04/06 02:29:50;;;;;;;2.10;1.20;;;18.30;44.50;;;;;;4916944;29;20215;-82
2021/04/06 02:32:31;;;;;;;3.53;1.00;;;18.30;44.30;;;;;;5015889;23;20235;-85
2021/04/06 02:49:01;;;;;;;3.03;1.07;;;18.40;44.80;;;;;;4838264;29;20249;-86
2021/04/06 02:51:43;;;;;;;2.17;1.00;;;18.40;44.40;;;;;;4856785;23;20238;-86
2021/04/06 02:54:13;;;;;;;3.57;1.10;;;18.50;44.30;;;;;;4920103;29;20208;-85
2021/04/06 02:56:42;;;;;;;3.07;1.23;;;18.50;44.10;;;;;;4926918;29;20247;-82
2021/04/06 02:59:12;;;;;;;1.67;1.10;;;18.50;44.40;;;;;;4935205;29;20223;-82
2021/04/06 03:01:39;;;;;;;3.00;1.00;;;18.50;44.60;;;;;;4923411;29;20199;-83
2021/04/06 03:04:33;;;;;;;2.00;1.20;;;18.50;44.10;;;;;;5149655;23;20260;-86
2021/04/06 03:07:00;;;;;;;2.87;1.10;;;18.60;44.10;;;;;;4924820;29;20210;-89
2021/04/06 03:09:29;;;;;;;3.73;1.20;;;18.50;44.20;;;;;;4951897;29;20195;-95
2021/04/06 03:12:00;;;;;;;2.27;1.00;;;18.50;44.10;;;;;;4921814;29;20203;-85
2021/04/06 03:14:27;;;;;;;3.37;1.43;;;18.50;44.40;;;;;;4915975;29;20334;-86
2021/04/06 03:16:53;;;;;;;1.30;0.93;;;18.60;44.10;;;;;;4939450;29;20190;-87
2021/04/06 03:19:30;;;;;;;4.33;1.00;;;18.50;43.70;;;;;;4938600;29;20207;-85
2021/04/06 03:21:59;;;;;;;3.03;1.50;;;18.50;43.70;;;;;;4923186;29;20194;-85
2021/04/06 03:24:28;;;;;;;2.50;1.30;;;18.40;43.60;;;;;;4923020;29;20198;-86
2021/04/06 03:27:03;;;;;;;3.17;1.50;;;18.40;43.60;;;;;;4935768;29;20564;-85
2021/04/06 03:29:30;;;;;;;2.20;1.20;;;18.30;43.60;;;;;;4923122;29;20194;-87
2021/04/06 03:32:00;;;;;;;1.93;1.13;;;18.30;43.60;;;;;;4938645;29;20206;-86
2021/04/06 03:34:37;;;;;;;2.70;1.30;;;18.30;43.70;;;;;;4939316;29;20221;-86
2021/04/06 03:37:05;;;;;;;2.03;1.10;;;18.20;43.70;;;;;;4939231;29;20175;-85
2021/04/06 03:39:33;;;;;;;2.77;1.13;;;18.20;43.70;;;;;;4938987;29;20210;-84
2021/04/06 03:42:00;;;;;;;2.03;0.90;;;18.20;43.80;;;;;;4932691;29;20201;-85
2021/04/06 03:44:28;;;;;;;4.13;1.27;;;18.10;43.80;;;;;;4938206;29;20206;-84
2021/04/06 03:47:05;;;;;;;3.17;1.20;;;18.10;43.80;;;;;;4939156;29;20202;-85
2021/04/06 03:49:33;;;;;;;2.90;1.00;;;18.00;43.80;;;;;;4938946;29;20198;-84
2021/04/06 03:52:07;;;;;;;2.47;1.00;;;18.00;43.90;;;;;;4938017;29;20199;-85
2021/04/06 03:58:47;;;;;;;3.87;1.30;;;18.00;43.90;;;;;;4924148;29;20218;-85
2021/04/06 04:04:40;;;;;;;2.57;1.23;;;17.90;44.00;;;;;;4936585;29;20227;-85
2021/04/06 04:08:07;;;;;;;2.83;1.40;;;17.90;44.10;;;;;;4936427;29;20207;-85
2021/04/06 04:10:36;;;;;;;2.90;1.30;;;17.80;44.00;;;;;;4917435;29;20624;-83
2021/04/06 04:13:02;;;;;;;2.93;1.37;;;17.80;44.00;;;;;;4935949;29;20706;-84
2021/04/06 04:15:29;;;;;;;3.33;1.13;;;17.80;44.10;;;;;;4938493;29;20238;-85
2021/04/06 04:17:55;;;;;;;2.47;1.20;;;17.70;43.90;;;;;;4937958;29;20694;-84
2021/04/06 04:20:22;;;;;;;3.37;1.47;;;17.70;44.00;;;;;;4937528;29;20667;-84
2021/04/06 04:22:50;;;;;;;3.53;1.40;;;17.60;43.90;;;;;;4937668;29;20659;-84
2021/04/06 04:25:17;;;;;;;3.23;1.20;;;17.70;43.90;;;;;;4936272;29;20209;-84
2021/04/06 04:27:44;;;;;;;2.70;1.10;;;17.60;44.00;;;;;;4937019;29;20178;-84
2021/04/06 04:30:12;;;;;;;2.77;1.30;;;17.60;44.00;;;;;;4938177;29;20205;-84
2021/04/06 04:32:40;;;;;;;3.10;1.13;;;17.60;44.00;;;;;;4937606;29;20669;-84
2021/04/06 04:35:07;;;;;;;2.40;1.13;;;17.60;44.00;;;;;;4936426;29;20277;-85
2021/04/06 04:37:34;;;;;;;2.40;1.07;;;17.60;44.00;;;;;;4937359;29;20222;-86
2021/04/06 04:40:00;;;;;;;3.07;1.20;;;17.60;44.00;;;;;;4936434;29;20194;-85
2021/04/06 04:42:32;;;;;;;2.87;1.30;;;17.50;44.10;;;;;;4937534;29;20252;-85
2021/04/06 04:44:58;;;;;;;2.83;1.20;;;17.50;44.10;;;;;;4937972;29;20194;-85
2021/04/06 04:47:25;;;;;;;2.67;1.10;;;17.50;44.10;;;;;;4937858;29;20206;-85
2021/04/06 04:49:51;;;;;;;1.60;0.90;;;17.50;44.20;;;;;;4937810;29;20198;-85
2021/04/06 04:52:17;;;;;;;3.53;1.20;;;17.50;44.30;;;;;;4944176;29;20678;-85
2021/04/06 04:54:43;;;;;;;3.73;1.23;;;17.40;44.90;;;;;;4920846;29;20214;-84
2021/04/06 04:57:10;;;;;;;2.20;0.90;;;17.40;44.30;;;;;;4943830;29;20240;-84
2021/04/06 04:59:36;;;;;;;2.50;1.43;;;17.40;44.30;;;;;;4938072;29;20217;-84
2021/04/06 05:02:02;;;;;;;2.57;1.27;;;17.40;44.40;;;;;;4928782;29;20197;-84
2021/04/06 05:04:29;;;;;;;2.20;1.07;;;17.40;44.40;;;;;;4937105;29;20230;-85
2021/04/06 05:06:56;;;;;;;3.80;1.10;;;17.30;44.40;;;;;;4937562;29;20182;-84
2021/04/06 05:09:22;;;;;;;3.33;1.30;;;17.40;44.40;;;;;;4937861;29;20202;-84
2021/04/06 05:11:48;;;;;;;2.93;1.23;;;17.30;44.40;;;;;;4937225;29;20567;-85
2021/04/06 05:14:14;;;;;;;2.43;1.13;;;17.30;44.40;;;;;;4935887;29;20226;-84
2021/04/06 05:16:41;;;;;;;1.67;0.97;;;17.30;44.50;;;;;;4935610;29;20663;-85
2021/04/06 05:19:07;;;;;;;3.03;1.20;;;17.30;44.50;;;;;;4936541;29;20579;-85
2021/04/06 05:21:34;;;;;;;3.57;1.00;;;17.30;44.50;;;;;;4936834;29;20675;-85
2021/04/06 05:24:00;;;;;;;1.87;1.03;;;17.30;44.50;;;;;;4935546;29;20203;-84
2021/04/06 05:26:26;;;;;;;1.60;0.90;;;17.30;44.60;;;;;;4937521;29;20210;-84
2021/04/06 05:28:52;;;;;;;2.90;0.87;;;17.20;44.60;;;;;;4920073;29;20201;-84
2021/04/06 05:31:19;;;;;;;1.77;0.93;;;17.20;44.60;;;;;;4935260;28;20198;-83
2021/04/06 05:33:45;;;;;;;2.53;0.90;;;17.20;44.50;;;;;;4920268;29;20234;-85
2021/04/06 05:36:11;;;;;;;2.00;0.90;;;17.20;44.60;;;;;;4937343;29;20301;-88
2021/04/06 05:38:38;;;;;;;3.03;1.10;;;17.20;44.70;;;;;;4937265;29;20203;-84
2021/04/06 05:41:04;;;;;;;2.80;1.30;;;17.20;44.80;;;;;;4937712;29;20194;-86
2021/04/06 05:43:33;;;;;;;2.57;0.80;;;17.20;44.70;;;;;;4937659;29;20199;-86
2021/04/06 05:46:01;;;;;;;5.10;1.20;;;17.20;44.80;;;;;;4938876;29;20206;-86
2021/04/06 05:48:32;;;;;;;3.13;1.00;;;17.10;44.80;;;;;;4920368;29;20210;-84
2021/04/06 05:51:00;;;;;;;4.07;1.70;;;17.20;44.90;;;;;;4938170;29;20190;-90
2021/04/06 05:53:26;;;;;;;4.67;1.87;;;17.10;45.00;;;;;;4921301;29;20193;-88
2021/04/06 05:55:52;;;;;;;5.50;2.03;;;17.10;45.10;;;;;;4937804;29;20214;-83
2021/04/06 05:58:19;;;;;;;8.03;2.33;;;17.10;45.20;;;;;;4920653;29;20199;-84
2021/04/06 06:00:45;;;;;;;5.97;2.00;;;17.10;45.30;;;;;;4918712;29;20210;-83
2021/04/06 06:03:12;;;;;;;10.80;2.43;;;17.10;45.30;;;;;;4928667;29;20206;-85
2021/04/06 06:05:41;;;;;;;11.30;2.33;;;17.10;45.30;;;;;;4918651;29;20234;-84
2021/04/06 06:08:13;;;;;;;6.83;2.37;;;17.10;45.30;;;;;;4932785;29;20218;-84
2021/04/06 06:10:42;;;;;;;16.50;3.40;;;17.10;45.50;;;;;;4932462;29;20209;-84
2021/04/06 06:13:28;;;;;;;12.77;3.80;;;17.10;46.90;;;;;;4930017;29;20198;-86
2021/04/06 06:16:12;;;;;;;14.00;4.33;;;17.10;46.80;;;;;;4913883;29;20226;-84
2021/04/06 06:18:56;;;;;;;12.30;4.50;;;17.10;47.00;;;;;;4934889;29;20199;-84
2021/04/06 06:21:36;;;;;;;19.93;4.30;;;17.10;46.80;;;;;;4936021;29;20209;-86
2021/04/06 06:24:04;;;;;;;10.07;3.23;;;17.10;46.90;;;;;;4926666;28;20198;-86
2021/04/06 06:26:30;;;;;;;12.70;3.27;;;17.10;46.50;;;;;;4918086;29;20198;-87
2021/04/06 06:29:10;;;;;;;14.47;3.67;;;17.10;46.40;;;;;;4934421;29;20837;-85
2021/04/06 06:31:59;;;;;;;13.83;2.93;;;17.00;46.30;;;;;;4941987;23;20592;-84
2021/04/06 06:34:36;;;;;;;12.67;3.37;;;17.10;46.30;;;;;;4934156;29;20289;-84
2021/04/06 06:37:15;;;;;;;8.43;2.83;;;17.10;46.20;;;;;;4933546;29;20194;-84
2021/04/06 06:39:51;;;;;;;9.53;2.73;;;17.10;46.20;;;;;;4934724;29;20245;-84
2021/04/06 06:42:20;;;;;;;7.73;2.47;;;17.10;46.10;;;;;;4931342;28;20207;-86
2021/04/06 06:44:47;;;;;;;9.90;2.70;;;17.00;46.10;;;;;;4919401;29;20238;-88
2021/04/06 06:47:23;;;;;;;4.37;1.93;;;17.00;46.00;;;;;;4931793;29;20199;-88
2021/04/06 06:49:53;;;;;;;8.87;2.30;;;17.00;46.10;;;;;;4916319;29;20193;-88
2021/04/06 06:52:19;;;;;;;8.33;2.80;;;17.00;46.10;;;;;;4920766;29;20198;-88
2021/04/06 06:54:46;;;;;;;8.00;2.23;;;17.00;46.30;;;;;;4926362;29;20281;-87
2021/04/06 06:57:16;;;;;;;5.07;2.20;;;17.00;46.50;;;;;;4930567;29;20289;-88
2021/04/06 06:59:46;;;;;;;6.90;2.17;;;17.00;46.60;;;;;;4933857;29;20198;-89
2021/04/06 07:02:26;;;;;;;7.93;2.57;;;17.00;46.60;;;;;;4933536;29;20213;-89
2021/04/06 07:05:13;;;;;;;7.37;2.23;;;17.00;46.70;;;;;;4915692;28;20179;-86
2021/04/06 07:07:51;;;;;;;7.27;2.23;;;17.00;46.70;;;;;;4929168;29;20269;-87
2021/04/06 07:10:25;;;;;;;7.90;2.47;;;17.00;46.80;;;;;;4933265;28;21089;-87
2021/04/06 07:13:19;;;;;;;9.27;2.63;;;17.00;46.80;;;;;;4935307;29;20679;-92
2021/04/06 07:15:47;;;;;;;8.17;2.47;;;17.00;46.70;;;;;;4910682;29;20217;-87
2021/04/06 07:18:22;;;;;;;10.40;2.70;;;17.00;46.70;;;;;;4916781;29;20195;-86
2021/04/06 07:21:00;;;;;;;5.70;2.20;;;17.00;47.00;;;;;;4934652;29;20203;-85
2021/04/06 07:24:04;;;;;;;7.47;2.63;;;17.00;46.90;;;;;;4917660;29;20213;-86
2021/04/06 07:26:32;;;;;;;7.20;2.73;;;17.00;46.90;;;;;;4927378;29;20212;-88
2021/04/06 07:28:58;;;;;;;6.33;2.13;;;17.00;46.80;;;;;;4917881;29;20788;-86
2021/04/06 07:31:25;;;;;;;6.70;2.10;;;17.00;46.80;;;;;;4935320;29;20218;-85
2021/04/06 07:33:52;;;;;;;8.83;2.20;;;17.00;46.80;;;;;;4916257;29;20230;-86
2021/04/06 07:36:24;;;;;;;5.37;2.07;;;17.00;46.70;;;;;;4934137;29;20560;-85
2021/04/06 07:38:54;;;;;;;4.97;2.17;;;17.00;46.60;;;;;;4933599;29;20206;-86
2021/04/06 07:41:23;;;;;;;5.30;2.27;;;17.00;46.50;;;;;;4937364;29;20202;-85
2021/04/06 07:43:52;;;;;;;9.33;2.60;;;17.00;46.50;;;;;;4936699;28;20186;-85
2021/04/06 07:46:33;;;;;;;4.77;1.63;;;17.00;46.40;;;;;;4936965;28;20325;-85
2021/04/06 07:49:03;;;;;;;5.13;2.03;;;17.00;46.40;;;;;;4935701;29;20190;-85
2021/04/06 07:51:39;;;;;;;2.90;1.40;;;17.00;46.30;;;;;;4921112;29;20195;-85
2021/04/06 07:54:20;;;;;;;11.10;1.97;;;17.00;46.30;;;;;;4925309;29;20218;-85
2021/04/06 07:57:05;;;;;;;4.30;1.90;;;17.00;46.30;;;;;;4932130;29;20195;-85
2021/04/06 07:59:32;;;;;;;3.50;1.70;;;17.00;46.30;;;;;;4929554;29;20189;-86
2021/04/06 08:02:01;;;;;;;2.53;1.27;;;17.00;46.30;;;;;;4924372;29;20288;-86
2021/04/06 08:04:37;;;;;;;4.43;1.60;;;17.00;46.20;;;;;;4933072;28;20226;-85
2021/04/06 08:07:24;;;;;;;6.33;1.40;;;17.00;46.20;;;;;;4933404;29;20203;-85
2021/04/06 08:09:54;;;;;;;3.57;1.30;;;17.00;46.20;;;;;;4921310;29;20226;-84
2021/04/06 08:12:35;;;;;;;3.40;1.30;;;17.00;46.20;;;;;;4929842;29;20687;-84
2021/04/06 08:15:05;;;;;;;3.60;1.70;;;17.00;46.10;;;;;;4932824;28;20220;-85
2021/04/06 08:17:31;;;;;;;3.50;1.30;;;17.00;46.20;;;;;;4927656;29;20195;-84
2021/04/06 08:20:14;;;;;;;2.30;1.20;;;17.00;46.20;;;;;;4933196;29;20208;-84
2021/04/06 08:22:48;;;;;;;1.40;0.87;;;17.00;46.10;;;;;;4931000;29;20331;-84
2021/04/06 08:25:21;;;;;;;2.87;1.33;;;17.00;46.10;;;;;;4932075;29;20245;-85
2021/04/06 08:27:52;;;;;;;2.43;1.00;;;17.00;45.80;;;;;;4914080;29;20195;-84
2021/04/06 08:30:27;;;;;;;1.60;0.80;;;17.00;45.70;;;;;;4932215;29;20210;-83
2021/04/06 08:32:59;;;;;;;3.07;0.80;;;17.00;45.80;;;;;;4931299;29;20240;-85
2021/04/06 08:35:47;;;;;;;2.07;1.07;;;17.00;45.80;;;;;;4929767;29;20230;-85
2021/04/06 08:38:23;;;;;;;2.77;0.90;;;17.00;45.90;;;;;;4931942;29;20211;-84
2021/04/06 08:40:52;;;;;;;1.53;1.20;;;17.00;45.90;;;;;;4925034;29;20205;-84
2021/04/06 08:43:38;;;;;;;3.20;1.03;;;17.00;45.90;;;;;;4927211;29;20568;-86
2021/04/06 08:46:07;;;;;;;2.47;0.93;;;17.00;46.00;;;;;;4928377;29;20238;-84
2021/04/06 08:48:46;;;;;;;2.77;0.93;;;17.00;45.90;;;;;;4914491;29;20198;-84
2021/04/06 08:51:31;;;;;;;1.93;0.90;;;17.00;46.00;;;;;;4926450;29;20202;-84
2021/04/06 08:54:21;;;;;;;2.83;0.90;;;17.00;45.90;;;;;;4930293;29;20261;-83
2021/04/06 08:56:55;;;;;;;1.33;0.83;;;17.00;46.00;;;;;;4932428;29;20214;-83
2021/04/06 08:59:23;;;;;;;1.67;1.00;;;17.00;46.00;;;;;;4930694;29;20500;-83
2021/04/06 09:01:57;;;;;;;1.23;0.70;;;17.00;46.00;;;;;;4927347;29;20221;-83
2021/04/06 09:04:32;;;;;;;1.67;0.90;;;17.00;46.00;;;;;;4931617;29;20217;-83
2021/04/06 09:06:58;;;;;;;2.10;0.90;;;17.00;46.00;;;;;;4926061;29;20578;-83
2021/04/06 09:09:27;;;;;;;1.83;0.90;;;17.00;46.10;;;;;;4932294;29;20202;-83
2021/04/06 09:12:01;;;;;;;2.03;0.80;;;17.00;46.00;;;;;;4928644;29;20210;-83
2021/04/06 09:14:30;;;;;;;2.57;1.03;;;17.00;46.00;;;;;;4926515;29;20226;-83
2021/04/06 09:16:56;;;;;;;1.20;0.73;;;17.00;45.90;;;;;;4931562;28;20210;-83
2021/04/06 09:19:25;;;;;;;2.30;0.80;;;17.00;45.90;;;;;;4931810;29;20210;-83
2021/04/06 09:21:58;;;;;;;2.40;0.60;;;17.00;45.90;;;;;;4932738;29;20570;-83
2021/04/06 09:24:26;;;;;;;1.80;0.83;;;17.10;45.90;;;;;;4915692;29;20190;-83
2021/04/06 09:26:56;;;;;;;2.07;0.77;;;17.00;45.90;;;;;;4928572;29;20218;-83
2021/04/06 09:29:29;;;;;;;1.77;0.80;;;17.00;45.90;;;;;;4931833;29;20635;-84
2021/04/06 09:32:01;;;;;;;1.47;0.87;;;17.00;45.90;;;;;;4925619;29;20250;-84
2021/04/06 09:34:32;;;;;;;2.50;0.67;;;17.00;46.70;;;;;;4916073;29;20210;-83
2021/04/06 09:37:10;;;;;;;2.13;0.67;;;17.00;46.60;;;;;;4930113;29;20174;-83
2021/04/06 09:39:47;;;;;;;1.77;0.87;;;17.00;46.40;;;;;;4929000;29;20203;-84
2021/04/06 09:42:14;;;;;;;1.77;0.50;;;17.00;46.30;;;;;;4926685;29;20190;-83
2021/04/06 09:44:43;;;;;;;1.80;0.53;;;17.00;46.30;;;;;;4932490;29;20202;-83
2021/04/06 09:47:13;;;;;;;2.33;0.87;;;17.00;46.40;;;;;;4927234;29;20199;-84
2021/04/06 09:49:45;;;;;;;1.93;0.60;;;17.00;46.20;;;;;;4936441;29;20205;-84
2021/04/06 09:52:22;;;;;;;1.17;0.50;;;17.00;46.20;;;;;;4928207;29;20207;-85
2021/04/06 09:55:00;;;;;;;2.90;0.63;;;17.00;46.10;;;;;;4923372;29;20242;-85
2021/04/06 09:57:34;;;;;;;1.37;0.83;;;17.00;46.10;;;;;;4917363;29;20224;-84
2021/04/06 10:00:00;;;;;;;1.27;1.00;;;17.00;46.10;;;;;;4916225;29;20232;-85
2021/04/06 10:02:29;;;;;;;1.33;0.60;;;17.00;46.20;;;;;;4888281;29;20210;-85
2021/04/06 10:04:56;;;;;;;1.37;0.90;;;17.00;46.10;;;;;;4917017;29;20202;-83
2021/04/06 10:07:22;;;;;;;4.50;1.03;;;17.00;46.10;;;;;;4922934;29;20206;-84
2021/04/06 10:10:00;;;;;;;0.80;0.50;;;17.00;46.20;;;;;;4917845;29;20210;-83
2021/04/06 10:12:29;;;;;;;1.60;0.70;;;17.00;46.10;;;;;;4924629;29;20792;-84
2021/04/06 10:14:56;;;;;;;1.30;0.60;;;17.00;46.10;;;;;;4924225;29;20225;-83
2021/04/06 10:17:35;;;;;;;2.37;0.73;;;17.00;46.10;;;;;;4926003;29;20198;-84
2021/04/06 10:20:07;;;;;;;1.27;0.73;;;17.10;46.10;;;;;;4925310;29;20254;-84
2021/04/06 10:22:45;;;;;;;1.93;0.63;;;17.00;46.20;;;;;;4929503;29;20187;-83
2021/04/06 10:25:14;;;;;;;1.47;0.80;;;17.00;46.20;;;;;;4932153;29;20198;-88
2021/04/06 10:27:43;;;;;;;0.73;0.47;;;17.00;46.10;;;;;;4919300;29;20183;-88
2021/04/06 10:30:26;;;;;;;1.50;0.60;;;17.00;46.20;;;;;;4931780;29;20203;-87
2021/04/06 10:33:09;;;;;;;1.17;0.60;;;17.00;46.30;;;;;;4909690;29;20314;-91
2021/04/06 10:35:43;;;;;;;1.00;0.50;;;17.00;46.30;;;;;;4928635;29;20237;-86
2021/04/06 10:38:24;;;;;;;1.73;0.80;;;17.00;46.20;;;;;;4925969;29;20198;-87
2021/04/06 10:41:07;;;;;;;1.13;0.70;;;17.00;46.30;;;;;;4920342;29;20219;-85
2021/04/06 10:43:39;;;;;;;2.37;0.77;;;17.00;46.20;;;;;;4901272;29;20210;-85
2021/04/06 10:46:27;;;;;;;1.03;0.50;;;17.00;46.30;;;;;;4909935;29;20210;-86
2021/04/06 10:49:04;;;;;;;2.83;0.60;;;17.00;47.30;;;;;;4922590;29;20191;-88
2021/04/06 10:51:33;;;;;;;1.10;0.50;;;17.10;47.50;;;;;;4939126;29;20199;-87
2021/04/06 10:54:10;;;;;;;1.63;0.57;;;17.10;47.50;;;;;;4925823;29;20218;-88
2021/04/06 10:56:43;;;;;;;2.60;0.60;;;17.10;47.30;;;;;;4923985;29;20567;-86
2021/04/06 10:59:12;;;;;;;1.23;0.57;;;17.10;47.50;;;;;;4919761;29;20202;-84
2021/04/06 11:01:48;;;;;;;1.03;0.57;;;17.10;47.10;;;;;;4919813;29;20202;-87
2021/04/06 11:04:18;;;;;;;1.27;0.40;;;17.10;47.10;;;;;;4924818;29;20193;-85
2021/04/06 11:06:56;;;;;;;1.63;0.60;;;17.10;46.90;;;;;;4935394;29;20206;-84
2021/04/06 11:09:41;;;;;;;4.07;0.60;;;17.10;46.80;;;;;;4936110;29;20193;-85
2021/04/06 11:12:10;;;;;;;0.93;0.40;;;17.10;46.70;;;;;;4918039;29;20188;-83
2021/04/06 11:14:38;;;;;;;0.90;0.60;;;17.10;46.60;;;;;;4937236;29;20199;-84
2021/04/06 11:17:08;;;;;;;1.57;0.60;;;17.10;46.20;;;;;;4925982;29;20591;-84
2021/04/06 11:19:38;;;;;;;1.97;0.50;;;17.10;46.00;;;;;;4933453;29;20192;-84
2021/04/06 11:22:18;;;;;;;1.07;0.60;;;17.10;46.00;;;;;;4910824;29;20227;-85
2021/04/06 11:24:47;;;;;;;1.13;0.60;;;17.10;46.00;;;;;;4916645;29;20222;-83
2021/04/06 11:27:14;;;;;;;1.67;0.67;;;17.10;46.00;;;;;;4917807;29;20690;-85
2021/04/06 11:29:45;;;;;;;1.10;0.50;;;17.10;46.10;;;;;;4916175;29;20570;-86
2021/04/06 11:32:14;;;;;;;1.27;0.70;;;17.10;46.00;;;;;;4926486;29;20234;-85
2021/04/06 11:34:42;;;;;;;2.37;0.77;;;17.10;46.10;;;;;;4929755;29;20302;-84
2021/04/06 11:37:12;;;;;;;1.53;0.60;;;17.00;46.00;;;;;;4938946;28;20202;-85
2021/04/06 11:39:42;;;;;;;1.67;0.63;;;17.10;46.10;;;;;;4936140;29;20198;-85
2021/04/06 11:42:11;;;;;;;1.37;0.63;;;17.10;46.10;;;;;;4934501;29;20199;-87
2021/04/06 11:44:37;;;;;;;1.63;0.60;;;17.10;46.10;;;;;;4915267;29;20191;-89
2021/04/06 11:47:04;;;;;;;1.57;0.70;;;17.10;46.30;;;;;;4919996;29;20195;-86
2021/04/06 11:49:31;;;;;;;0.90;0.63;;;17.10;46.30;;;;;;4928841;29;20210;-87
2021/04/06 11:51:58;;;;;;;1.17;0.63;;;17.10;46.40;;;;;;4916390;29;20203;-85
2021/04/06 11:54:43;;;;;;;2.77;0.93;;;17.10;46.40;;;;;;4915504;29;20311;-88
2021/04/06 11:57:11;;;;;;;1.70;0.90;;;17.10;46.30;;;;;;4930082;29;20206;-86
2021/04/06 11:59:40;;;;;;;1.53;0.80;;;17.20;46.40;;;;;;4930747;29;20281;-88
2021/04/06 12:02:08;;;;;;;0.50;0.50;;;17.20;46.40;;;;;;4925790;29;20202;-86
2021/04/06 12:04:34;;;;;;;2.83;0.87;;;17.10;46.50;;;;;;4927089;29;20222;-86
2021/04/06 12:07:01;;;;;;;1.90;1.00;;;17.10;46.40;;;;;;4923208;29;20667;-86
2021/04/06 12:09:28;;;;;;;1.63;0.73;;;17.20;46.20;;;;;;4929322;29;20207;-89
2021/04/06 12:12:02;;;;;;;2.50;0.90;;;17.10;46.10;;;;;;4922725;29;20203;-88
2021/04/06 12:14:28;;;;;;;1.00;0.90;;;17.10;46.30;;;;;;4914946;29;20241;-87
2021/04/06 12:16:55;;;;;;;1.40;0.70;;;17.10;46.00;;;;;;4920204;29;20855;-88
2021/04/06 12:19:24;;;;;;;1.00;0.70;;;17.20;46.10;;;;;;4930449;29;20581;-86
2021/04/06 12:21:52;;;;;;;0.93;0.50;;;17.10;46.10;;;;;;4933869;29;20210;-86
2021/04/06 12:24:18;;;;;;;0.97;0.70;;;17.10;46.10;;;;;;4927747;29;20199;-88
2021/04/06 12:26:44;;;;;;;2.00;1.30;;;17.10;46.10;;;;;;4909366;29;20230;-86
2021/04/06 12:29:11;;;;;;;2.03;1.30;;;17.10;46.10;;;;;;4949807;29;20197;-87
2021/04/06 12:31:37;;;;;;;2.40;1.37;;;17.10;46.00;;;;;;4947226;29;20230;-84
2021/04/06 12:34:03;;;;;;;2.20;1.10;;;17.10;46.10;;;;;;4937654;29;20195;-84
2021/04/06 12:36:29;;;;;;;1.80;1.00;;;17.10;46.20;;;;;;4949525;29;20188;-90
2021/04/06 12:38:56;;;;;;;1.87;1.33;;;17.20;47.60;;;;;;4934639;29;20190;-84
2021/04/06 12:41:42;;;;;;;1.77;0.80;;;17.30;47.50;;;;;;4937800;29;20230;-85
2021/04/06 12:44:09;;;;;;;3.00;1.27;;;17.40;48.20;;;;;;4922628;29;20205;-90
2021/04/06 12:46:35;;;;;;;3.17;0.83;;;17.50;47.80;;;;;;4917236;29;20680;-91
2021/04/06 12:49:03;;;;;;;5.40;1.10;;;17.70;47.60;;;;;;4921037;28;20205;-91
2021/04/06 12:51:30;;;;;;;2.73;0.90;;;17.70;47.20;;;;;;4927415;28;20570;-86
2021/04/06 12:53:56;;;;;;;3.40;0.80;;;17.70;47.00;;;;;;4932353;29;20241;-85
2021/04/06 12:56:23;;;;;;;1.77;0.63;;;17.80;47.20;;;;;;4934687;29;20694;-92
2021/04/06 12:58:49;;;;;;;2.37;0.80;;;17.80;47.60;;;;;;4931289;29;20279;-87
2021/04/06 13:01:31;;;;;;;2.87;0.70;;;17.80;46.90;;;;;;4935043;29;20289;-83
2021/04/06 13:03:58;;;;;;;4.50;0.80;;;17.90;46.70;;;;;;4919771;29;20207;-83
2021/04/06 13:06:24;;;;;;;2.47;0.70;;;17.90;47.30;;;;;;4910267;29;20195;-83
2021/04/06 13:08:50;;;;;;;2.30;0.80;;;17.90;47.50;;;;;;4907814;29;20201;-84
2021/04/06 13:11:16;;;;;;;2.00;0.77;;;18.00;47.50;;;;;;4930646;29;20202;-84
2021/04/06 13:13:42;;;;;;;2.13;0.67;;;18.00;47.40;;;;;;4927412;29;20210;-84
2021/04/06 13:16:09;;;;;;;1.87;0.80;;;18.10;47.50;;;;;;4914692;29;20238;-86
2021/04/06 13:18:35;;;;;;;2.03;0.60;;;18.10;47.40;;;;;;4927046;29;20218;-83
2021/04/06 13:21:03;;;;;;;2.20;0.57;;;18.10;47.30;;;;;;4940110;23;20608;-83
2021/04/06 13:23:36;;;;;;;1.10;0.60;;;18.20;47.40;;;;;;4905546;29;20294;-82
2021/04/06 13:26:02;;;;;;;4.80;0.80;;;18.20;47.30;;;;;;4931233;29;20253;-82
2021/04/06 13:28:31;;;;;;;1.77;0.60;;;18.20;47.50;;;;;;4925222;29;20206;-82